createdAt,value
2022-09-26T00:00:19.980Z,29.40
2022-09-26T00:03:37.757Z,30.80
2022-09-26T00:06:54.561Z,28.23
2022-09-26T00:10:11.961Z,32.68
2022-09-26T00:13:28.031Z,28.70
2022-09-26T00:16:45.658Z,31.60
2022-09-26T00:20:01.879Z,32.15
2022-09-26T00:23:18.366Z,30.23
2022-09-26T00:26:37.492Z,31.85
2022-09-26T00:29:56.796Z,30.73
2022-09-26T00:33:12.939Z,31.13
2022-09-26T00:36:37.609Z,30.60
2022-09-26T00:39:47.152Z,29.10
2022-09-26T00:43:03.349Z,29.30
2022-09-26T00:46:29.397Z,31.88
2022-09-26T00:49:48.304Z,28.53
2022-09-26T00:53:09.165Z,28.48
2022-09-26T00:56:31.046Z,27.98
2022-09-26T00:59:51.683Z,31.70
2022-09-26T01:03:08.364Z,28.33
2022-09-26T01:06:25.579Z,30.13
2022-09-26T01:09:42.320Z,31.98
2022-09-26T01:12:59.071Z,28.05
2022-09-26T01:16:15.770Z,28.43
2022-09-26T01:19:37.303Z,26.33
2022-09-26T01:23:37.059Z,29.98
2022-09-26T01:27:42.545Z,25.35
2022-09-26T01:31:03.612Z,28.68
2022-09-26T01:34:25.201Z,26.55
2022-09-26T01:37:47.051Z,25.48
2022-09-26T01:41:13.839Z,25.63
2022-09-26T01:44:38.797Z,27.68
2022-09-26T01:48:00.318Z,25.83
2022-09-26T01:51:21.274Z,26.68
2022-09-26T01:54:43.507Z,29.55
2022-09-26T01:58:04.497Z,26.60
2022-09-26T02:01:24.777Z,26.70
2022-09-26T02:04:45.917Z,26.30
2022-09-26T02:08:08.365Z,25.63
2022-09-26T02:11:26.928Z,23.95
2022-09-26T02:14:46.553Z,24.45
2022-09-26T02:18:09.257Z,25.85
2022-09-26T02:21:29.524Z,26.10
2022-09-26T02:24:45.837Z,27.78
2022-09-26T02:28:01.951Z,23.88
2022-09-26T02:31:21.418Z,24.58
2022-09-26T02:34:37.883Z,23.70
2022-09-26T02:37:53.961Z,25.25
2022-09-26T02:41:18.176Z,24.53
2022-09-26T02:44:54.486Z,24.15
2022-09-26T02:48:29.971Z,24.33
2022-09-26T02:52:04.010Z,27.23
2022-09-26T02:55:28.125Z,25.60
2022-09-26T02:58:52.348Z,28.03
2022-09-26T03:02:14.264Z,26.95
2022-09-26T03:05:35.884Z,26.53
2022-09-26T03:08:55.564Z,26.30
2022-09-26T03:12:17.469Z,27.45
2022-09-26T03:15:35.792Z,28.08
2022-09-26T03:18:58.402Z,29.53
2022-09-26T03:22:15.000Z,26.15
2022-09-26T03:25:35.394Z,24.00
2022-09-26T03:28:53.403Z,28.10
2022-09-26T03:32:10.650Z,26.90
2022-09-26T03:35:27.538Z,27.50
2022-09-26T03:38:43.961Z,27.33
2022-09-26T03:42:08.166Z,26.75
2022-09-26T03:45:24.695Z,29.50
2022-09-26T03:48:49.910Z,28.55
2022-09-26T03:52:06.092Z,28.95
2022-09-26T03:55:22.361Z,28.18
2022-09-26T03:58:42.148Z,28.23
2022-09-26T04:01:58.460Z,28.05
2022-09-26T04:05:17.448Z,27.25
2022-09-26T04:08:33.750Z,38.10
2022-09-26T04:11:49.915Z,32.93
2022-09-26T04:15:07.085Z,35.18
2022-09-26T04:18:23.568Z,35.18
2022-09-26T04:21:41.459Z,35.83
2022-09-26T04:24:57.814Z,33.13
2022-09-26T04:28:13.965Z,36.33
2022-09-26T04:31:31.352Z,34.78
2022-09-26T04:34:49.576Z,33.30
2022-09-26T04:38:09.091Z,30.03
2022-09-26T04:41:28.385Z,33.73
2022-09-26T04:44:44.574Z,34.10
2022-09-26T04:48:01.278Z,35.78
2022-09-26T04:51:27.953Z,35.33
2022-09-26T04:54:45.431Z,33.35
2022-09-26T04:58:02.862Z,34.20
2022-09-26T05:01:24.214Z,31.73
2022-09-26T05:04:42.921Z,34.18
2022-09-26T05:08:00.106Z,33.65
2022-09-26T05:11:18.102Z,32.98
2022-09-26T05:14:36.169Z,34.43
2022-09-26T05:17:52.794Z,34.93
2022-09-26T05:21:09.294Z,35.18
2022-09-26T05:24:39.416Z,33.95
2022-09-26T05:27:56.135Z,37.55
2022-09-26T05:31:12.402Z,36.85
2022-09-26T05:34:29.300Z,50.08
2022-09-26T05:37:45.763Z,44.13
2022-09-26T05:41:04.875Z,42.80
2022-09-26T05:44:21.960Z,42.08
2022-09-26T05:47:41.573Z,43.78
2022-09-26T05:50:58.134Z,45.25
2022-09-26T05:54:14.565Z,43.13
2022-09-26T05:57:31.401Z,40.33
2022-09-26T06:00:48.542Z,41.78
2022-09-26T06:04:05.388Z,40.45
2022-09-26T06:07:23.631Z,42.28
2022-09-26T06:10:40.955Z,39.03
2022-09-26T06:13:58.601Z,43.93
2022-09-26T06:17:15.210Z,45.75
2022-09-26T06:20:32.176Z,41.95
2022-09-26T06:23:57.602Z,40.40
2022-09-26T06:27:16.716Z,42.05
2022-09-26T06:30:37.419Z,45.90
2022-09-26T06:34:06.339Z,46.45
2022-09-26T06:37:24.224Z,47.05
2022-09-26T06:40:40.592Z,44.35
2022-09-26T06:43:58.473Z,47.43
2022-09-26T06:47:19.432Z,48.40
2022-09-26T06:50:35.891Z,46.75
2022-09-26T06:53:52.270Z,49.83
2022-09-26T06:57:14.742Z,50.90
2022-09-26T07:00:30.645Z,45.43
2022-09-26T07:03:48.877Z,43.33
2022-09-26T07:07:29.782Z,50.88
2022-09-26T07:10:47.928Z,51.38
2022-09-26T07:14:09.136Z,50.30
2022-09-26T07:17:28.624Z,50.48
2022-09-26T07:21:16.507Z,45.38
2022-09-26T07:24:37.074Z,44.13
2022-09-26T07:27:56.726Z,45.38
2022-09-26T07:31:16.438Z,46.55
2022-09-26T07:34:47.203Z,45.50
2022-09-26T07:38:05.943Z,47.15
2022-09-26T07:41:22.805Z,47.03
2022-09-26T07:45:19.627Z,43.73
2022-09-26T07:48:11.269Z,44.50
2022-09-26T07:51:47.437Z,45.40
2022-09-26T07:55:05.667Z,48.23
2022-09-26T07:58:40.002Z,43.33
2022-09-26T08:02:04.030Z,47.23
2022-09-26T08:05:26.350Z,45.98
2022-09-26T08:08:43.394Z,41.33
2022-09-26T08:12:18.517Z,43.60
2022-09-26T08:15:37.068Z,42.58
2022-09-26T08:18:55.756Z,39.75
2022-09-26T08:22:13.071Z,39.00
2022-09-26T08:25:29.586Z,41.88
2022-09-26T08:28:55.604Z,38.98
2022-09-26T08:32:12.274Z,44.63
2022-09-26T08:35:28.493Z,36.63
2022-09-26T08:39:03.793Z,37.28
2022-09-26T08:42:43.146Z,37.33
2022-09-26T08:46:38.232Z,35.93
2022-09-26T08:50:16.730Z,39.00
2022-09-26T08:53:38.637Z,37.18
2022-09-26T08:57:02.760Z,36.45
2022-09-26T09:00:29.686Z,35.98
2022-09-26T09:03:53.609Z,37.45
2022-09-26T09:07:17.184Z,36.18
2022-09-26T09:10:44.375Z,37.43
2022-09-26T09:14:22.410Z,36.38
2022-09-26T09:18:04.601Z,35.93
2022-09-26T09:21:41.857Z,40.60
2022-09-26T09:25:23.036Z,41.40
2022-09-26T09:29:03.457Z,41.73
2022-09-26T09:32:25.726Z,45.58
2022-09-26T09:35:49.895Z,43.50
2022-09-26T09:39:29.778Z,42.83
2022-09-26T09:42:55.831Z,43.60
2022-09-26T09:46:18.500Z,43.98
2022-09-26T09:49:35.927Z,44.93
2022-09-26T09:53:00.156Z,59.13
2022-09-26T09:56:22.242Z,49.05
2022-09-26T09:59:55.396Z,64.20
2022-09-26T10:03:19.821Z,58.55
2022-09-26T10:06:45.199Z,56.28
2022-09-26T10:09:57.805Z,52.55
2022-09-26T10:13:19.969Z,51.90
2022-09-26T10:17:31.896Z,48.08
2022-09-26T10:21:13.200Z,40.05
2022-09-26T10:24:46.236Z,38.15
2022-09-26T10:28:26.806Z,34.55
2022-09-26T10:31:48.634Z,38.00
2022-09-26T10:35:26.666Z,38.98
2022-09-26T10:39:06.076Z,36.98
2022-09-26T10:42:37.720Z,35.85
2022-09-26T10:46:16.656Z,36.08
2022-09-26T10:49:56.032Z,29.48
2022-09-26T10:53:27.817Z,33.90
2022-09-26T10:56:48.651Z,30.18
2022-09-26T11:00:09.445Z,31.63
2022-09-26T11:03:31.908Z,32.53
2022-09-26T11:07:06.861Z,32.80
2022-09-26T11:10:32.613Z,32.90
2022-09-26T11:14:08.032Z,29.85
2022-09-26T11:17:24.519Z,29.35
2022-09-26T11:20:54.533Z,30.28
2022-09-26T11:24:18.225Z,25.98
2022-09-26T11:27:43.586Z,27.98
2022-09-26T11:31:06.375Z,29.45
2022-09-26T11:34:27.547Z,29.50
2022-09-26T11:38:22.683Z,22.40
2022-09-26T11:41:52.027Z,23.38
2022-09-26T11:45:13.374Z,19.50
2022-09-26T11:48:56.777Z,21.20
2022-09-26T11:52:37.007Z,19.35
2022-09-26T11:56:06.869Z,16.48
2022-09-26T11:59:56.698Z,13.03
2022-09-26T12:03:46.377Z,12.68
2022-09-26T12:07:13.006Z,11.25
2022-09-26T12:10:40.191Z,12.00
2022-09-26T12:14:03.695Z,11.15
2022-09-26T12:17:27.495Z,11.30
2022-09-26T12:20:51.040Z,11.48
2022-09-26T12:24:12.937Z,10.23
2022-09-26T12:27:36.996Z,12.05
2022-09-26T12:31:02.132Z,8.70
2022-09-26T12:34:54.675Z,11.50
2022-09-26T12:38:37.888Z,9.98
2022-09-26T12:42:15.999Z,10.68
2022-09-26T12:45:59.500Z,9.83
2022-09-26T12:49:45.818Z,9.25
2022-09-26T12:53:34.904Z,10.00
2022-09-26T12:56:58.686Z,8.38
2022-09-26T13:00:26.045Z,8.43
2022-09-26T13:04:19.506Z,9.05
2022-09-26T13:07:52.120Z,9.60
2022-09-26T13:11:21.699Z,9.08
2022-09-26T13:15:05.837Z,7.95
2022-09-26T13:18:29.002Z,5.73
2022-09-26T13:21:55.141Z,7.90
2022-09-26T13:25:21.584Z,7.03
2022-09-26T13:29:00.615Z,7.10
2022-09-26T13:32:07.648Z,6.65
2022-09-26T13:35:29.052Z,6.55
2022-09-26T13:38:52.450Z,8.33
2022-09-26T13:42:13.160Z,6.13
2022-09-26T13:45:34.857Z,5.30
2022-09-26T13:48:59.728Z,6.00
2022-09-26T13:52:36.916Z,6.00
2022-09-26T13:56:08.679Z,6.33
2022-09-26T13:59:57.522Z,6.25
2022-09-26T14:03:50.576Z,6.50
2022-09-26T14:08:03.335Z,7.53
2022-09-26T14:11:33.247Z,6.30
2022-09-26T14:15:01.493Z,7.53
2022-09-26T14:18:35.706Z,8.10
2022-09-26T14:22:06.605Z,5.88
2022-09-26T14:26:00.898Z,6.30
2022-09-26T14:29:40.147Z,5.88
2022-09-26T14:32:56.865Z,5.55
2022-09-26T14:36:36.594Z,6.20
2022-09-26T14:43:18.846Z,5.30
2022-09-26T14:46:38.146Z,49.45
2022-09-26T14:50:05.626Z,13.08
2022-09-26T14:56:48.600Z,6.53
2022-09-26T15:00:06.358Z,6.75
2022-09-26T15:03:27.365Z,4.50
2022-09-26T15:06:54.458Z,6.00
2022-09-26T15:13:37.625Z,8.23
2022-09-26T15:16:58.394Z,6.63
2022-09-26T15:20:20.541Z,27.20
2022-09-26T15:26:55.009Z,6.43
2022-09-26T15:30:23.350Z,7.63
2022-09-26T15:33:41.653Z,8.03
2022-09-26T15:37:05.160Z,5.68
2022-09-26T15:43:40.807Z,8.73
2022-09-26T15:46:59.294Z,8.40
2022-09-26T15:50:22.970Z,11.00
2022-09-26T15:56:59.101Z,9.63
2022-09-26T16:00:20.420Z,10.45
2022-09-26T16:03:57.254Z,8.80
2022-09-26T16:07:22.256Z,11.58
2022-09-26T16:13:57.444Z,12.55
2022-09-26T16:17:25.603Z,11.95
2022-09-26T16:20:42.124Z,11.40
2022-09-26T16:24:01.770Z,15.15
2022-09-26T16:27:31.950Z,13.08
2022-09-26T16:30:55.299Z,12.63
2022-09-26T16:34:24.232Z,15.65
2022-09-26T16:37:40.799Z,12.40
2022-09-26T16:41:02.770Z,11.33
2022-09-26T16:44:34.840Z,13.58
2022-09-26T16:47:53.072Z,13.18
2022-09-26T16:51:25.101Z,15.23
2022-09-26T16:54:41.443Z,11.35
2022-09-26T16:58:04.203Z,16.35
2022-09-26T17:01:34.996Z,11.83
2022-09-26T17:04:57.884Z,10.23
2022-09-26T17:08:19.380Z,13.30
2022-09-26T17:11:36.420Z,15.60
2022-09-26T17:14:57.559Z,12.50
2022-09-26T17:18:17.859Z,11.55
2022-09-26T17:21:34.600Z,17.35
2022-09-26T17:24:51.379Z,17.73
2022-09-26T17:28:08.655Z,10.30
2022-09-26T17:31:27.979Z,10.13
2022-09-26T17:34:45.529Z,9.13
2022-09-26T17:38:05.094Z,9.93
2022-09-26T17:41:26.177Z,9.90
2022-09-26T17:44:43.993Z,9.43
2022-09-26T17:48:03.722Z,10.73
2022-09-26T17:51:22.606Z,10.38
2022-09-26T17:54:43.891Z,10.03
2022-09-26T17:58:07.424Z,10.45
2022-09-26T18:01:33.563Z,11.43
2022-09-26T18:04:52.625Z,12.00
2022-09-26T18:08:14.904Z,9.85
2022-09-26T18:11:35.545Z,11.65
2022-09-26T18:14:55.086Z,12.33
2022-09-26T18:18:14.935Z,10.70
2022-09-26T18:21:31.812Z,10.63
2022-09-26T18:24:51.678Z,12.15
2022-09-26T18:28:17.099Z,12.63
2022-09-26T18:31:43.033Z,11.28
2022-09-26T18:35:02.177Z,10.88
2022-09-26T18:38:19.724Z,13.15
2022-09-26T18:41:40.912Z,10.70
2022-09-26T18:45:10.000Z,10.73
2022-09-26T18:48:33.850Z,12.03
2022-09-26T18:51:51.949Z,11.05
2022-09-26T18:55:34.055Z,12.60
2022-09-26T18:58:52.197Z,11.65
2022-09-26T19:02:14.592Z,12.80
2022-09-26T19:05:34.273Z,11.18
2022-09-26T19:08:55.808Z,14.00
2022-09-26T19:15:32.369Z,12.83
2022-09-26T19:18:51.278Z,12.63
2022-09-26T19:28:47.468Z,13.28
2022-09-26T19:32:04.492Z,14.25
2022-09-26T19:35:31.504Z,15.45
2022-09-26T19:38:51.422Z,14.70
2022-09-26T19:42:09.300Z,22.75
2022-09-26T19:45:27.522Z,20.60
2022-09-26T19:48:54.682Z,21.63
2022-09-26T19:52:16.091Z,20.65
2022-09-26T19:55:39.008Z,17.45
2022-09-26T19:58:55.517Z,17.93
2022-09-26T20:02:16.693Z,17.45
2022-09-26T20:05:35.572Z,17.55
2022-09-26T20:08:56.395Z,17.43
2022-09-26T20:12:12.092Z,15.75
2022-09-26T20:15:29.255Z,16.65
2022-09-26T20:18:49.341Z,14.98
2022-09-26T20:22:08.316Z,15.45
2022-09-26T20:25:29.648Z,17.03
2022-09-26T20:28:46.037Z,16.38
2022-09-26T20:32:04.472Z,14.33
2022-09-26T20:35:24.305Z,14.95
2022-09-26T20:38:48.945Z,15.18
2022-09-26T20:42:05.521Z,15.40
2022-09-26T20:45:28.741Z,17.40
2022-09-26T20:48:47.932Z,14.68
2022-09-26T20:52:08.639Z,16.03
2022-09-26T21:01:56.813Z,16.10
2022-09-26T21:05:23.584Z,13.65
2022-09-26T21:08:40.354Z,16.10
2022-09-26T21:11:57.347Z,16.38
2022-09-26T21:15:17.217Z,15.85
2022-09-26T21:18:37.586Z,17.58
2022-09-26T21:21:54.425Z,15.23
2022-09-26T21:25:15.350Z,20.20
2022-09-26T21:28:36.507Z,17.13
2022-09-26T21:31:57.069Z,13.85
2022-09-26T21:35:15.776Z,13.48
2022-09-26T21:38:33.416Z,15.00
2022-09-26T21:41:49.702Z,16.38
2022-09-26T21:45:11.510Z,17.18
2022-09-26T21:48:29.305Z,17.10
2022-09-26T21:51:46.353Z,14.63
2022-09-26T21:58:36.687Z,15.90
2022-09-26T22:01:53.198Z,15.13
2022-09-26T22:05:10.044Z,18.93
2022-09-26T22:08:29.135Z,15.83
2022-09-26T22:11:46.933Z,15.13
2022-09-26T22:15:03.723Z,12.10
2022-09-26T22:18:20.374Z,13.03
2022-09-26T22:21:36.812Z,12.98
2022-09-26T22:29:37.136Z,12.13
2022-09-26T22:32:53.420Z,12.00
2022-09-26T22:36:10.454Z,12.55
2022-09-26T22:39:26.850Z,12.58
2022-09-26T22:42:43.265Z,16.38
2022-09-26T22:45:59.531Z,14.15
2022-09-26T22:49:15.891Z,14.10
2022-09-26T22:52:32.149Z,13.50
2022-09-26T22:56:01.425Z,16.03
2022-09-26T22:59:18.255Z,15.85
2022-09-26T23:02:34.653Z,15.78
2022-09-26T23:05:53.256Z,12.95
2022-09-26T23:09:12.401Z,15.03
2022-09-26T23:15:42.472Z,13.08
2022-09-26T23:18:59.349Z,18.35
2022-09-26T23:22:16.239Z,15.38
2022-09-26T23:25:32.532Z,13.48
2022-09-26T23:28:48.673Z,15.25
2022-09-26T23:32:05.061Z,14.43
2022-09-26T23:35:21.606Z,14.10
2022-09-26T23:38:40.317Z,14.20
2022-09-26T23:45:13.832Z,15.28
2022-09-26T23:48:30.223Z,15.93
2022-09-26T23:51:48.298Z,12.43
2022-09-26T23:55:04.449Z,13.40
2022-09-26T23:58:21.146Z,12.25
